Jungle Queen — DNNN — position and weather

sailwx.info

Track history (hours):
 
Tides and Currents Weather Stations Pressure Air Temp Water Temp Dewpoint Dewpoint Depression Visibility Wind Speed Wind Dir Waves Ship Positions

Jungle Queen

Last reported at 2017-Oct-01 10:14 UTC. Time now 2017-Nov-24 11:39 UTC.
Position N 37°30' E 025°55'.
Warning: this ship's position is 54 days out of date.

Length 20 m.

Type: Sailing vessel. MMSI: 211345520.

Date/timePositionNaut miles runAvg speedWind from/ knotsBaromVisibWave heightAir tempDewpointWater temp
2017-Oct-01 10:14N 37°30' E 025°55'16 5.8
2017-Oct-01 07:29N 37°32' E 025°35'3 6.3
2017-Oct-01 07:00N 37°32' E 025°31'4 6.7
2017-Oct-01 06:28N 37°32' E 025°27'3 6.7
2017-Oct-01 05:57N 37°32' E 025°22'3 6.5
2017-Oct-01 05:28N 37°32' E 025°18'2 4.7
2017-Oct-01 05:00N 37°31' E 025°16'2 5.0
2017-Oct-01 04:30N 37°31' E 025°13'2 3.5
2017-Oct-01 04:00N 37°31' E 025°10'1 1.7
2017-Oct-01 03:25N 37°32' E 025°10'  
2017-Sep-27 13:13N 37°32' E 025°09'1 4.5
2017-Sep-27 12:59N 37°32' E 025°08'2 4.6
2017-Sep-27 12:30N 37°32' E 025°05'59 2.3
2017-Sep-26 10:25N 37°43' E 023°52'3 5.2
2017-Sep-26 09:48N 37°45' E 023°49'2 5.3
2017-Sep-26 09:26N 37°46' E 023°47'2 5.5
2017-Sep-26 08:59N 37°48' E 023°45'3 5.4
2017-Sep-26 08:30N 37°50' E 023°44'3 5.2
2017-Sep-26 08:00N 37°53' E 023°43'0 0.2
2017-Sep-26 07:30N 37°53' E 023°43'0 0.0
2017-Sep-26 07:00N 37°53' E 023°43'0 0.0
2017-Sep-26 06:28N 37°53' E 023°43'1 1.5
2017-Sep-26 06:00N 37°53' E 023°42'3 5.1
2017-Sep-26 05:30N 37°55' E 023°40'  
Track history (hours):
 
Tides and Currents Weather Stations Pressure Air Temp Water Temp Dewpoint Dewpoint Depression Visibility Wind Speed Wind Dir Waves Ship Positions

Jungle Queen

Last reported at 2017-Oct-01 10:14 UTC. Time now 2017-Nov-24 11:39 UTC.
Position N 37°30' E 025°55'.
Warning: this ship's position is 54 days out of date.

Length 20 m.

Type: Sailing vessel. MMSI: 211345520.

Date/timePositionNaut miles runAvg speedWind from/ knotsBaromVisibWave heightAir tempDewpointWater temp
2017-Oct-01 10:14N 37°30' E 025°55'16 5.8
2017-Oct-01 07:29N 37°32' E 025°35'3 6.3
2017-Oct-01 07:00N 37°32' E 025°31'4 6.7
2017-Oct-01 06:28N 37°32' E 025°27'3 6.7
2017-Oct-01 05:57N 37°32' E 025°22'3 6.5
2017-Oct-01 05:28N 37°32' E 025°18'2 4.7
2017-Oct-01 05:00N 37°31' E 025°16'2 5.0
2017-Oct-01 04:30N 37°31' E 025°13'2 3.5
2017-Oct-01 04:00N 37°31' E 025°10'1 1.7
2017-Oct-01 03:25N 37°32' E 025°10'  
2017-Sep-27 13:13N 37°32' E 025°09'1 4.5
2017-Sep-27 12:59N 37°32' E 025°08'2 4.6
2017-Sep-27 12:30N 37°32' E 025°05'59 2.3
2017-Sep-26 10:25N 37°43' E 023°52'3 5.2
2017-Sep-26 09:48N 37°45' E 023°49'2 5.3
2017-Sep-26 09:26N 37°46' E 023°47'2 5.5
2017-Sep-26 08:59N 37°48' E 023°45'3 5.4
2017-Sep-26 08:30N 37°50' E 023°44'3 5.2
2017-Sep-26 08:00N 37°53' E 023°43'0 0.2
2017-Sep-26 07:30N 37°53' E 023°43'0 0.0
2017-Sep-26 07:00N 37°53' E 023°43'0 0.0
2017-Sep-26 06:28N 37°53' E 023°43'1 1.5
2017-Sep-26 06:00N 37°53' E 023°42'3 5.1
2017-Sep-26 05:30N 37°55' E 023°40'  

Dump ship's entire track history